createdAt,value
2022-11-13T00:00:43.471Z,11.25
2022-11-13T00:03:37.074Z,11.25
2022-11-13T00:06:29.019Z,11.27
2022-11-13T00:09:20.408Z,11.21
2022-11-13T00:12:11.974Z,11.19
2022-11-13T00:15:05.178Z,11.19
2022-11-13T00:17:59.624Z,11.21
2022-11-13T00:20:51.007Z,11.22
2022-11-13T00:23:42.476Z,11.17
2022-11-13T00:26:33.709Z,11.17
2022-11-13T00:29:26.023Z,11.12
2022-11-13T00:32:20.530Z,11.09
2022-11-13T00:35:12.298Z,11.10
2022-11-13T00:38:03.718Z,11.17
2022-11-13T00:40:55.121Z,11.14
2022-11-13T00:43:46.812Z,11.08
2022-11-13T00:46:37.989Z,11.14
2022-11-13T00:49:31.014Z,11.08
2022-11-13T00:52:22.675Z,11.12
2022-11-13T00:55:14.175Z,11.07
2022-11-13T00:58:08.076Z,11.01
2022-11-13T01:01:05.698Z,11.02
2022-11-13T01:03:58.398Z,10.99
2022-11-13T01:06:52.915Z,11.02
2022-11-13T01:09:46.154Z,11.01
2022-11-13T01:12:38.213Z,10.97
2022-11-13T01:15:30.410Z,11.00
2022-11-13T01:18:22.056Z,11.05
2022-11-13T01:21:16.571Z,11.02
2022-11-13T01:24:11.928Z,11.01
2022-11-13T01:27:03.848Z,11.02
2022-11-13T01:29:58.246Z,11.02
2022-11-13T01:32:49.626Z,11.01
2022-11-13T01:35:42.844Z,10.93
2022-11-13T01:38:36.733Z,10.90
2022-11-13T01:41:31.833Z,10.90
2022-11-13T01:44:23.405Z,10.93
2022-11-13T01:47:15.250Z,10.91
2022-11-13T01:50:07.489Z,10.91
2022-11-13T01:52:59.124Z,10.90
2022-11-13T01:55:51.262Z,10.94
2022-11-13T01:58:47.558Z,10.90
2022-11-13T02:01:38.887Z,10.88
2022-11-13T02:04:31.445Z,10.86
2022-11-13T02:07:23.380Z,10.85
2022-11-13T02:10:14.977Z,10.90
2022-11-13T02:13:06.803Z,10.87
2022-11-13T02:16:00.079Z,10.87
2022-11-13T02:18:52.411Z,10.83
2022-11-13T02:21:54.194Z,10.86
2022-11-13T02:24:52.252Z,10.82
2022-11-13T02:27:48.284Z,10.83
2022-11-13T02:30:39.861Z,10.85
2022-11-13T02:33:34.082Z,10.78
2022-11-13T02:36:31.760Z,10.73
2022-11-13T02:39:24.922Z,10.71
2022-11-13T02:42:17.685Z,10.73
2022-11-13T02:45:09.587Z,10.68
2022-11-13T02:48:01.586Z,10.70
2022-11-13T02:50:53.559Z,10.72
2022-11-13T02:53:48.423Z,10.68
2022-11-13T02:56:39.845Z,10.66
2022-11-13T02:59:32.126Z,10.65
2022-11-13T03:02:23.914Z,10.68
2022-11-13T03:05:15.638Z,10.62
2022-11-13T03:08:07.544Z,10.64
2022-11-13T03:10:59.191Z,10.66
2022-11-13T03:13:50.449Z,10.61
2022-11-13T03:16:43.446Z,10.61
2022-11-13T03:19:36.445Z,10.56
2022-11-13T03:22:28.123Z,10.59
2022-11-13T03:25:19.571Z,10.59
2022-11-13T03:28:11.589Z,10.59
2022-11-13T03:31:03.196Z,10.60
2022-11-13T03:33:56.633Z,10.58
2022-11-13T03:36:48.867Z,10.58
2022-11-13T03:39:40.346Z,10.63
2022-11-13T03:42:36.213Z,10.55
2022-11-13T03:45:27.976Z,10.57
2022-11-13T03:48:19.354Z,10.48
2022-11-13T03:51:12.504Z,10.49
2022-11-13T03:54:04.180Z,10.51
2022-11-13T03:56:55.304Z,10.55
2022-11-13T03:59:47.012Z,10.51
2022-11-13T04:02:38.748Z,10.50
2022-11-13T04:05:30.905Z,10.48
2022-11-13T04:08:23.842Z,10.42
2022-11-13T04:11:15.491Z,10.47
2022-11-13T04:14:06.654Z,10.43
2022-11-13T04:16:58.309Z,10.42
2022-11-13T04:19:49.461Z,10.40
2022-11-13T04:22:40.965Z,10.47
2022-11-13T04:25:34.267Z,10.42
2022-11-13T04:28:26.081Z,10.39
2022-11-13T04:31:17.893Z,10.31
2022-11-13T04:34:09.821Z,10.32
2022-11-13T04:37:04.280Z,10.36
2022-11-13T04:39:56.355Z,10.40
2022-11-13T04:42:54.420Z,10.32
2022-11-13T04:45:46.096Z,10.34
2022-11-13T04:48:37.629Z,10.34
2022-11-13T04:51:28.858Z,10.36
2022-11-13T04:54:24.309Z,10.37
2022-11-13T04:57:18.851Z,10.34
2022-11-13T05:00:12.915Z,10.31
2022-11-13T05:03:04.453Z,10.22
2022-11-13T05:06:03.147Z,10.29
2022-11-13T05:08:54.867Z,10.29
2022-11-13T05:11:46.217Z,10.27
2022-11-13T05:14:38.435Z,10.24
2022-11-13T05:17:31.636Z,10.24
2022-11-13T05:20:23.286Z,10.28
2022-11-13T05:23:14.987Z,10.28
2022-11-13T05:26:08.899Z,10.27
2022-11-13T05:29:01.324Z,10.24
2022-11-13T05:31:52.625Z,10.17
2022-11-13T05:34:45.446Z,10.08
2022-11-13T05:37:37.112Z,10.15
2022-11-13T05:40:31.090Z,10.10
2022-11-13T05:43:26.364Z,10.08
2022-11-13T05:46:22.322Z,10.07
2022-11-13T05:49:13.617Z,10.07
2022-11-13T05:52:06.357Z,10.03
2022-11-13T05:54:58.051Z,10.04
2022-11-13T05:57:49.649Z,10.06
2022-11-13T06:00:41.439Z,9.98
2022-11-13T06:03:33.351Z,10.01
2022-11-13T06:06:26.833Z,9.94
2022-11-13T06:09:22.570Z,9.88
2022-11-13T06:12:13.740Z,9.94
2022-11-13T06:15:05.837Z,10.01
2022-11-13T06:17:56.996Z,10.00
2022-11-13T06:20:48.467Z,9.95
2022-11-13T06:23:41.607Z,9.93
2022-11-13T06:26:36.334Z,9.91
2022-11-13T06:29:28.598Z,9.91
2022-11-13T06:32:19.955Z,9.90
2022-11-13T06:35:11.486Z,9.97
2022-11-13T06:38:03.087Z,9.87
2022-11-13T06:41:00.158Z,9.91
2022-11-13T06:43:55.640Z,9.93
2022-11-13T06:46:49.549Z,9.93
2022-11-13T06:49:41.530Z,9.98
2022-11-13T06:52:33.657Z,9.92
2022-11-13T06:55:26.113Z,9.95
2022-11-13T06:58:17.842Z,10.02
2022-11-13T07:01:12.039Z,9.96
2022-11-13T07:04:04.735Z,10.00
2022-11-13T07:06:56.026Z,10.05
2022-11-13T07:09:47.491Z,10.00
2022-11-13T07:12:38.929Z,9.98
2022-11-13T07:15:30.228Z,9.97
2022-11-13T07:18:24.231Z,9.94
2022-11-13T07:21:15.563Z,9.91
2022-11-13T07:24:10.426Z,9.94
2022-11-13T07:27:04.057Z,9.99
2022-11-13T07:29:59.488Z,9.96
2022-11-13T07:32:54.161Z,9.98
2022-11-13T07:35:46.657Z,10.03
2022-11-13T07:38:37.926Z,9.95
2022-11-13T07:41:29.303Z,10.04
2022-11-13T07:44:47.748Z,10.03
2022-11-13T07:47:31.864Z,10.01
2022-11-13T07:50:33.028Z,10.09
2022-11-13T07:53:25.841Z,10.06
2022-11-13T07:56:22.762Z,10.04
2022-11-13T07:59:14.881Z,10.05
2022-11-13T08:02:07.402Z,10.08
2022-11-13T08:04:58.787Z,10.09
2022-11-13T08:07:51.519Z,10.16
2022-11-13T08:10:46.045Z,10.15
2022-11-13T08:13:38.488Z,10.14
2022-11-13T08:16:29.664Z,10.11
2022-11-13T08:19:21.076Z,10.14
2022-11-13T08:22:12.010Z,10.16
2022-11-13T08:25:03.236Z,10.23
2022-11-13T08:27:56.027Z,10.23
2022-11-13T08:30:47.599Z,10.29
2022-11-13T08:33:38.916Z,10.37
2022-11-13T08:36:30.876Z,10.35
2022-11-13T08:39:22.291Z,10.42
2022-11-13T08:42:13.452Z,10.38
2022-11-13T08:45:06.790Z,10.43
2022-11-13T08:48:01.239Z,10.47
2022-11-13T08:50:53.611Z,10.53
2022-11-13T08:53:45.280Z,10.57
2022-11-13T08:56:36.377Z,10.61
2022-11-13T08:59:28.086Z,10.69
2022-11-13T09:02:20.863Z,10.73
2022-11-13T09:05:12.561Z,10.89
2022-11-13T09:08:04.136Z,10.95
2022-11-13T09:10:55.045Z,10.94
2022-11-13T09:13:50.663Z,11.05
2022-11-13T09:16:44.605Z,11.14
2022-11-13T09:19:37.246Z,11.22
2022-11-13T09:22:29.200Z,11.30
2022-11-13T09:25:20.570Z,11.30
2022-11-13T09:28:11.759Z,11.29
2022-11-13T09:31:05.222Z,11.38
2022-11-13T09:33:57.655Z,11.35
2022-11-13T09:36:50.282Z,11.43
2022-11-13T09:39:41.623Z,11.51
2022-11-13T09:42:42.326Z,11.59
2022-11-13T09:45:36.026Z,11.62
2022-11-13T09:48:30.924Z,11.70
2022-11-13T09:51:25.906Z,11.66
2022-11-13T09:54:19.142Z,11.81
2022-11-13T09:57:25.770Z,11.89
2022-11-13T10:00:20.272Z,11.93
2022-11-13T10:03:59.353Z,12.01
2022-11-13T10:06:50.622Z,12.11
2022-11-13T10:09:55.314Z,12.19
2022-11-13T10:12:49.726Z,12.26
2022-11-13T10:15:44.134Z,12.30
2022-11-13T10:18:38.919Z,12.38
2022-11-13T10:21:36.407Z,12.44
2022-11-13T10:24:31.172Z,12.60
2022-11-13T10:27:25.439Z,12.61
2022-11-13T10:30:44.140Z,12.66
2022-11-13T10:33:35.766Z,12.85
2022-11-13T10:36:36.512Z,12.92
2022-11-13T10:39:29.314Z,12.98
2022-11-13T10:42:28.513Z,13.07
2022-11-13T10:45:23.016Z,13.10
2022-11-13T10:48:32.813Z,13.32
2022-11-13T10:51:26.939Z,13.40
2022-11-13T10:54:25.207Z,13.36
2022-11-13T10:57:28.962Z,13.61
2022-11-13T11:00:23.380Z,13.65
2022-11-13T11:03:15.945Z,13.60
2022-11-13T11:06:08.127Z,13.72
2022-11-13T11:09:07.370Z,13.79
2022-11-13T11:12:18.982Z,13.83
2022-11-13T11:15:22.250Z,13.92
2022-11-13T11:18:25.853Z,13.90
2022-11-13T11:21:22.304Z,14.05
2022-11-13T11:24:18.310Z,14.19
2022-11-13T11:27:17.894Z,14.35
2022-11-13T11:30:19.652Z,14.30
2022-11-13T11:33:16.636Z,14.42
2022-11-13T11:36:16.935Z,14.32
2022-11-13T11:39:26.926Z,14.46
2022-11-13T11:42:28.883Z,14.52
2022-11-13T11:45:27.825Z,14.60
2022-11-13T11:48:22.704Z,14.61
2022-11-13T11:51:22.275Z,14.42
2022-11-13T11:54:27.597Z,14.44
2022-11-13T11:57:40.368Z,14.53
2022-11-13T12:00:34.276Z,14.48
2022-11-13T12:03:47.810Z,14.32
2022-11-13T12:06:50.447Z,14.17
2022-11-13T12:09:48.434Z,14.13
2022-11-13T12:12:56.285Z,14.14
2022-11-13T12:15:58.806Z,14.12
2022-11-13T12:19:00.689Z,14.07
2022-11-13T12:22:06.218Z,14.08
2022-11-13T12:25:10.177Z,14.01
2022-11-13T12:28:12.951Z,13.91
2022-11-13T12:31:15.522Z,13.93
2022-11-13T12:34:17.378Z,13.87
2022-11-13T12:37:15.529Z,13.85
2022-11-13T12:40:14.014Z,13.81
2022-11-13T12:43:33.663Z,13.79
2022-11-13T12:46:35.817Z,13.78
2022-11-13T12:49:30.766Z,13.76
2022-11-13T12:52:24.543Z,13.72
2022-11-13T12:55:28.852Z,13.76
2022-11-13T12:58:22.835Z,13.76
2022-11-13T13:01:18.905Z,13.73
2022-11-13T13:04:41.386Z,13.67
2022-11-13T13:08:44.080Z,13.60
2022-11-13T13:11:44.882Z,13.60
2022-11-13T13:14:54.029Z,13.58
2022-11-13T13:18:08.278Z,13.56
2022-11-13T13:21:06.253Z,13.54
2022-11-13T13:24:09.880Z,13.58
2022-11-13T13:27:41.300Z,13.50
2022-11-13T13:30:49.548Z,13.52
2022-11-13T13:38:05.867Z,13.53
2022-11-13T13:42:05.723Z,13.48
2022-11-13T13:59:45.782Z,13.46
2022-11-13T14:03:29.265Z,13.46
2022-11-13T14:06:30.182Z,13.65
2022-11-13T14:09:23.373Z,13.59
2022-11-13T14:12:19.052Z,13.52
2022-11-13T14:16:17.078Z,13.48
2022-11-13T14:20:13.263Z,13.49
2022-11-13T14:23:16.473Z,13.43
2022-11-13T14:26:11.075Z,13.46
2022-11-13T14:29:03.868Z,13.43
2022-11-13T14:31:55.643Z,13.50
2022-11-13T14:34:49.412Z,13.43
2022-11-13T14:41:39.877Z,13.40
2022-11-13T14:44:32.769Z,13.38
2022-11-13T14:47:40.764Z,13.36
2022-11-13T14:51:47.386Z,13.33
2022-11-13T14:54:46.975Z,13.26
2022-11-13T14:57:51.285Z,13.25
2022-11-13T15:01:36.770Z,13.24
2022-11-13T15:04:40.188Z,13.22
2022-11-13T15:07:48.657Z,13.24
2022-11-13T15:10:40.510Z,13.19
2022-11-13T15:13:33.121Z,13.19
2022-11-13T15:16:28.936Z,13.16
2022-11-13T15:19:26.764Z,13.17
2022-11-13T15:23:00.344Z,13.11
2022-11-13T15:25:51.860Z,13.06
2022-11-13T15:28:45.281Z,13.05
2022-11-13T15:31:39.576Z,13.07
2022-11-13T15:34:31.065Z,13.02
2022-11-13T15:37:22.564Z,12.99
2022-11-13T15:40:15.157Z,12.98
2022-11-13T15:43:16.422Z,12.98
2022-11-13T15:46:26.838Z,12.93
2022-11-13T15:49:18.108Z,12.91
2022-11-13T15:52:10.742Z,12.92
2022-11-13T15:55:03.150Z,12.89
2022-11-13T15:58:05.194Z,12.87
2022-11-13T16:01:06.338Z,12.84
2022-11-13T16:04:14.091Z,12.80
2022-11-13T16:07:25.227Z,12.67
2022-11-13T16:10:50.297Z,12.68
2022-11-13T16:13:42.108Z,12.75
2022-11-13T16:16:38.314Z,12.63
2022-11-13T16:19:31.935Z,12.61
2022-11-13T16:22:24.647Z,12.51
2022-11-13T16:25:18.892Z,12.64
2022-11-13T16:28:16.393Z,12.57
2022-11-13T16:31:08.346Z,12.47
2022-11-13T16:33:59.875Z,12.49
2022-11-13T16:36:53.388Z,12.44
2022-11-13T16:39:45.565Z,12.36
2022-11-13T16:42:37.223Z,12.33
2022-11-13T16:45:29.150Z,12.39
2022-11-13T16:48:20.675Z,12.30
2022-11-13T16:51:12.204Z,12.31
2022-11-13T16:54:12.487Z,12.20
2022-11-13T16:57:06.362Z,12.13
2022-11-13T16:59:57.614Z,12.10
2022-11-13T17:02:53.299Z,12.08
2022-11-13T17:05:44.780Z,12.11
2022-11-13T17:08:36.055Z,12.10
2022-11-13T17:11:33.058Z,11.98
2022-11-13T17:14:24.827Z,11.98
2022-11-13T17:17:16.182Z,11.97
2022-11-13T17:20:11.744Z,11.91
2022-11-13T17:23:02.982Z,11.90
2022-11-13T17:25:54.387Z,11.86
2022-11-13T17:28:47.173Z,11.84
2022-11-13T17:31:38.310Z,11.97
2022-11-13T17:34:29.932Z,11.82
2022-11-13T17:37:25.335Z,11.80
2022-11-13T17:40:17.467Z,11.78
2022-11-13T17:43:10.411Z,11.74
2022-11-13T17:46:05.592Z,11.73
2022-11-13T17:48:57.193Z,11.73
2022-11-13T17:51:51.268Z,11.73
2022-11-13T17:54:44.045Z,11.67
2022-11-13T17:57:40.592Z,11.62
2022-11-13T18:00:32.502Z,11.51
2022-11-13T18:03:25.227Z,11.50
2022-11-13T18:06:20.050Z,11.57
2022-11-13T18:09:12.135Z,11.52
2022-11-13T18:12:04.118Z,11.47
2022-11-13T18:14:58.139Z,11.47
2022-11-13T18:17:49.517Z,11.47
2022-11-13T18:20:42.940Z,11.54
2022-11-13T18:23:34.481Z,11.47
2022-11-13T18:26:25.608Z,11.44
2022-11-13T18:29:17.707Z,11.43
2022-11-13T18:32:12.352Z,11.33
2022-11-13T18:35:05.159Z,11.33
2022-11-13T18:38:00.830Z,11.33
2022-11-13T18:40:53.073Z,11.29
2022-11-13T18:43:45.271Z,11.36
2022-11-13T18:47:12.579Z,11.32
2022-11-13T18:50:03.999Z,11.36
2022-11-13T18:52:56.513Z,11.32
2022-11-13T18:56:21.695Z,11.31
2022-11-13T19:00:51.096Z,11.31
2022-11-13T19:04:08.155Z,11.42
2022-11-13T19:07:19.033Z,11.26
2022-11-13T19:10:18.036Z,11.30
2022-11-13T19:13:11.894Z,11.19
2022-11-13T19:19:47.714Z,11.18
2022-11-13T19:22:41.899Z,11.18
2022-11-13T19:25:35.174Z,11.20
2022-11-13T19:28:32.597Z,11.22
2022-11-13T19:35:22.966Z,11.12
2022-11-13T19:38:29.224Z,11.12
2022-11-13T19:41:29.455Z,11.09
2022-11-13T19:44:21.598Z,11.08
2022-11-13T19:47:13.428Z,11.06
2022-11-13T19:50:06.351Z,11.07
2022-11-13T19:53:02.249Z,11.11
2022-11-13T19:55:59.573Z,11.03
2022-11-13T19:58:52.853Z,11.09
2022-11-13T20:01:44.441Z,11.02
2022-11-13T20:04:36.266Z,11.03
2022-11-13T20:07:31.296Z,10.99
2022-11-13T20:10:24.279Z,11.03
2022-11-13T20:13:20.812Z,11.02
2022-11-13T20:16:22.402Z,10.94
2022-11-13T20:19:23.687Z,10.94
2022-11-13T20:22:15.718Z,10.97
2022-11-13T20:25:12.878Z,10.89
2022-11-13T20:28:10.300Z,10.90
2022-11-13T20:31:11.713Z,10.91
2022-11-13T20:34:04.011Z,10.85
2022-11-13T20:36:58.461Z,10.79
2022-11-13T20:39:49.930Z,10.82
2022-11-13T20:42:41.671Z,10.79
2022-11-13T20:45:36.503Z,10.79
2022-11-13T20:48:30.701Z,10.81
2022-11-13T20:51:24.627Z,10.80
2022-11-13T20:54:16.257Z,10.78
2022-11-13T20:57:09.338Z,10.78
2022-11-13T21:00:00.884Z,10.79
2022-11-13T21:02:54.490Z,10.79
2022-11-13T21:05:47.256Z,10.81
2022-11-13T21:08:43.573Z,10.81
2022-11-13T21:11:35.747Z,10.77
2022-11-13T21:14:27.573Z,10.79
2022-11-13T21:17:19.245Z,10.82
2022-11-13T21:20:21.039Z,10.75
2022-11-13T21:23:19.362Z,10.73
2022-11-13T21:26:11.238Z,10.72
2022-11-13T21:29:02.983Z,10.71
2022-11-13T21:31:54.888Z,10.70
2022-11-13T21:34:47.245Z,10.71
2022-11-13T21:37:39.856Z,10.66
2022-11-13T21:40:31.271Z,10.66
2022-11-13T21:43:22.652Z,10.66
2022-11-13T21:46:15.067Z,10.59
2022-11-13T21:49:09.680Z,10.62
2022-11-13T21:52:00.879Z,10.55
2022-11-13T21:54:53.829Z,10.55
2022-11-13T21:57:45.165Z,10.57
2022-11-13T22:00:37.043Z,10.54
2022-11-13T22:03:29.421Z,10.52
2022-11-13T22:06:23.168Z,10.54
2022-11-13T22:09:18.923Z,10.51
2022-11-13T22:12:14.318Z,10.50
2022-11-13T22:15:08.999Z,10.47
2022-11-13T22:18:03.771Z,10.46
2022-11-13T22:21:00.167Z,10.43
2022-11-13T22:23:51.711Z,10.37
2022-11-13T22:26:46.060Z,10.37
2022-11-13T22:29:38.866Z,10.33
2022-11-13T22:32:30.614Z,10.32
2022-11-13T22:35:23.514Z,10.28
2022-11-13T22:38:15.383Z,10.28
2022-11-13T22:41:12.825Z,10.33
2022-11-13T22:44:06.926Z,10.27
2022-11-13T22:46:59.570Z,10.27
2022-11-13T22:49:51.461Z,10.26
2022-11-13T22:52:42.467Z,10.22
2022-11-13T22:55:34.547Z,10.24
2022-11-13T22:58:25.980Z,10.25
2022-11-13T23:01:19.351Z,10.20
2022-11-13T23:04:15.183Z,10.17
2022-11-13T23:07:06.720Z,10.16
2022-11-13T23:09:58.104Z,10.13
2022-11-13T23:12:51.472Z,10.20
2022-11-13T23:15:43.129Z,10.14
2022-11-13T23:18:34.912Z,10.03
2022-11-13T23:21:28.586Z,10.05
2022-11-13T23:24:19.884Z,10.10
2022-11-13T23:27:11.503Z,10.12
2022-11-13T23:30:07.432Z,10.05
2022-11-13T23:32:58.899Z,10.07
2022-11-13T23:35:50.954Z,10.02
2022-11-13T23:38:43.920Z,10.01
2022-11-13T23:41:35.545Z,9.98
2022-11-13T23:44:27.053Z,9.95
2022-11-13T23:47:21.187Z,9.95
2022-11-13T23:50:12.346Z,9.95
2022-11-13T23:53:05.463Z,9.92
2022-11-13T23:55:58.357Z,9.89
2022-11-13T23:58:52.709Z,9.86
